This is the latest recevied weather packets stored in our database for station/object KJ7HSW. If no packets are shown the sender has not sent any weather packets the latest 10 day(s).
| Time | Temp. | Humidity | Pressure | Rain* | Wind** | Luminosity | Snow |
|---|---|---|---|---|---|---|---|
| 1777496574 | 20° C | 51% | 1023.6 hPa | 0 mm | - | 778 W/m² | - |
| 1777496271 | 20° C | 49% | 1023.4 hPa | 0 mm | - | 779 W/m² | - |
| 1777495967 | 20° C | 49% | 1023.4 hPa | 0 mm | - | 782 W/m² | - |
| 1777495663 | 20° C | 49% | 1023.4 hPa | 0 mm | - | 789 W/m² | - |
| 1777495359 | 19.44° C | 49% | 1023.5 hPa | 0 mm | - | 795 W/m² | - |
| 1777495056 | 19.44° C | 49% | 1023.5 hPa | 0 mm | - | 802 W/m² | - |
| 1777494753 | 19.44° C | 49% | 1023.6 hPa | 0 mm | - | 806 W/m² | - |
| 1777494451 | 19.44° C | 50% | 1023.6 hPa | 0 mm | - | 805 W/m² | - |
| 1777494147 | 19.44° C | 53% | 1023.7 hPa | 0 mm | - | 810 W/m² | - |
| 1777493844 | 20° C | 49% | 1023.6 hPa | 0 mm | - | 811 W/m² | - |
| 1777493543 | 18.89° C | 49% | 1023.7 hPa | 0 mm | - | 818 W/m² | - |
| 1777493240 | 18.89° C | 52% | 1023.7 hPa | 0 mm | - | 818 W/m² | - |
| 1777492936 | 19.44° C | 48% | 1023.7 hPa | 0 mm | - | 822 W/m² | - |
| 1777492633 | 18.89° C | 51% | 1023.7 hPa | 0 mm | - | 825 W/m² | - |
| 1777492328 | 18.89° C | 48% | 1024 hPa | 0 mm | - | 826 W/m² | - |
| 1777492025 | 18.89° C | 47% | 1023.9 hPa | 0 mm | - | 824 W/m² | - |
| 1777491721 | 18.89° C | 50% | 1024.1 hPa | 0 mm | - | 825 W/m² | - |
| 1777491419 | 18.89° C | 47% | 1023.9 hPa | 0 mm | - | 822 W/m² | - |
| 1777491116 | 19.44° C | 47% | 1023.7 hPa | 0 mm | - | 820 W/m² | - |
| 1777490811 | 18.33° C | 52% | 1024 hPa | 0 mm | - | 815 W/m² | - |
| 1777490508 | 18.33° C | 48% | 1024 hPa | 0 mm | - | 816 W/m² | - |
| 1777490204 | 18.89° C | 48% | 1023.9 hPa | 0 mm | - | 813 W/m² | - |
| 1777489901 | 18.33° C | 50% | 1024.1 hPa | 0 mm | - | 812 W/m² | - |
| 1777489599 | 18.33° C | 49% | 1024.2 hPa | 0 mm | - | 805 W/m² | - |
| 1777489295 | 18.33° C | 49% | 1024.4 hPa | 0 mm | - | 800 W/m² | - |
* Rain latest hour (hover to see other rain measurements)
** Current wind speed in m/s (hover to see current wind gust speed)